sensor_id;sensor_type;location;lat;lon;timestamp;temperature;humidity
9103;DHT22;4587;51.434;6.788;2022-12-07T00:01:39;6.00;99.90
9103;DHT22;4587;51.434;6.788;2022-12-07T00:04:07;6.00;99.90
9103;DHT22;4587;51.434;6.788;2022-12-07T00:06:44;6.10;99.90
9103;DHT22;4587;51.434;6.788;2022-12-07T00:09:15;6.10;99.90
9103;DHT22;4587;51.434;6.788;2022-12-07T00:11:41;6.10;99.90
9103;DHT22;4587;51.434;6.788;2022-12-07T00:14:11;6.10;99.90
9103;DHT22;4587;51.434;6.788;2022-12-07T00:16:37;6.10;99.90
9103;DHT22;4587;51.434;6.788;2022-12-07T00:19:04;6.10;99.90
9103;DHT22;4587;51.434;6.788;2022-12-07T00:21:32;6.10;99.90
9103;DHT22;4587;51.434;6.788;2022-12-07T00:23:58;6.10;99.90
9103;DHT22;4587;51.434;6.788;2022-12-07T00:26:26;6.10;99.90
9103;DHT22;4587;51.434;6.788;2022-12-07T00:28:54;6.10;99.90
9103;DHT22;4587;51.434;6.788;2022-12-07T00:31:22;6.20;99.90
9103;DHT22;4587;51.434;6.788;2022-12-07T00:33:48;6.20;99.90
9103;DHT22;4587;51.434;6.788;2022-12-07T00:36:17;6.20;99.90
9103;DHT22;4587;51.434;6.788;2022-12-07T00:38:43;6.20;99.90
9103;DHT22;4587;51.434;6.788;2022-12-07T00:41:18;6.10;99.90
9103;DHT22;4587;51.434;6.788;2022-12-07T00:43:44;6.10;99.90
9103;DHT22;4587;51.434;6.788;2022-12-07T00:46:11;6.10;99.90
9103;DHT22;4587;51.434;6.788;2022-12-07T00:48:36;6.10;99.90
9103;DHT22;4587;51.434;6.788;2022-12-07T00:51:03;6.10;99.90
9103;DHT22;4587;51.434;6.788;2022-12-07T00:53:29;6.10;99.90
9103;DHT22;4587;51.434;6.788;2022-12-07T00:55:55;6.10;99.90
9103;DHT22;4587;51.434;6.788;2022-12-07T00:58:22;6.10;99.90
9103;DHT22;4587;51.434;6.788;2022-12-07T01:00:47;6.10;99.90
9103;DHT22;4587;51.434;6.788;2022-12-07T01:03:14;6.20;99.90
9103;DHT22;4587;51.434;6.788;2022-12-07T01:05:49;6.10;99.90
9103;DHT22;4587;51.434;6.788;2022-12-07T01:08:15;6.10;99.90
9103;DHT22;4587;51.434;6.788;2022-12-07T01:10:40;6.10;99.90
9103;DHT22;4587;51.434;6.788;2022-12-07T01:13:06;6.10;99.90
9103;DHT22;4587;51.434;6.788;2022-12-07T01:15:31;6.10;99.90
9103;DHT22;4587;51.434;6.788;2022-12-07T01:17:57;6.00;99.90
9103;DHT22;4587;51.434;6.788;2022-12-07T01:20:22;6.00;99.90
9103;DHT22;4587;51.434;6.788;2022-12-07T01:22:48;6.00;99.90
9103;DHT22;4587;51.434;6.788;2022-12-07T01:25:14;6.00;99.90
9103;DHT22;4587;51.434;6.788;2022-12-07T01:27:39;6.00;99.90
9103;DHT22;4587;51.434;6.788;2022-12-07T01:30:06;6.10;99.90
9103;DHT22;4587;51.434;6.788;2022-12-07T01:32:32;6.10;99.90
9103;DHT22;4587;51.434;6.788;2022-12-07T01:34:58;6.00;99.90
9103;DHT22;4587;51.434;6.788;2022-12-07T01:37:23;6.00;99.90
9103;DHT22;4587;51.434;6.788;2022-12-07T01:39:50;6.00;99.90
9103;DHT22;4587;51.434;6.788;2022-12-07T01:42:18;6.00;99.90
9103;DHT22;4587;51.434;6.788;2022-12-07T01:47:55;6.00;99.90
9103;DHT22;4587;51.434;6.788;2022-12-07T01:50:25;6.00;99.90
9103;DHT22;4587;51.434;6.788;2022-12-07T01:52:54;5.90;99.90
9103;DHT22;4587;51.434;6.788;2022-12-07T01:55:21;5.90;99.90
9103;DHT22;4587;51.434;6.788;2022-12-07T01:57:49;5.90;99.90
9103;DHT22;4587;51.434;6.788;2022-12-07T02:00:16;5.90;99.90
9103;DHT22;4587;51.434;6.788;2022-12-07T02:02:55;5.90;99.90
9103;DHT22;4587;51.434;6.788;2022-12-07T02:05:24;5.80;99.90
9103;DHT22;4587;51.434;6.788;2022-12-07T02:07:51;5.80;99.90
9103;DHT22;4587;51.434;6.788;2022-12-07T02:10:20;5.80;99.90
9103;DHT22;4587;51.434;6.788;2022-12-07T02:12:50;5.80;99.90
9103;DHT22;4587;51.434;6.788;2022-12-07T02:15:18;5.70;99.90
9103;DHT22;4587;51.434;6.788;2022-12-07T02:26:43;5.70;99.90
9103;DHT22;4587;51.434;6.788;2022-12-07T02:29:31;5.70;99.90
9103;DHT22;4587;51.434;6.788;2022-12-07T02:37:51;5.60;99.90
9103;DHT22;4587;51.434;6.788;2022-12-07T02:43:14;5.60;99.90
9103;DHT22;4587;51.434;6.788;2022-12-07T02:45:42;5.60;99.90
9103;DHT22;4587;51.434;6.788;2022-12-07T02:48:12;5.70;99.90
9103;DHT22;4587;51.434;6.788;2022-12-07T02:50:39;5.60;99.90
9103;DHT22;4587;51.434;6.788;2022-12-07T02:53:38;5.60;99.90
9103;DHT22;4587;51.434;6.788;2022-12-07T02:56:26;5.50;99.90
9103;DHT22;4587;51.434;6.788;2022-12-07T03:02:07;5.40;99.90
9103;DHT22;4587;51.434;6.788;2022-12-07T03:16:02;5.20;99.90
9103;DHT22;4587;51.434;6.788;2022-12-07T03:18:04;5.20;99.90
9103;DHT22;4587;51.434;6.788;2022-12-07T03:20:31;5.20;99.90
9103;DHT22;4587;51.434;6.788;2022-12-07T03:22:59;5.10;99.90
9103;DHT22;4587;51.434;6.788;2022-12-07T03:25:26;5.10;99.90
9103;DHT22;4587;51.434;6.788;2022-12-07T03:28:02;5.10;99.90
9103;DHT22;4587;51.434;6.788;2022-12-07T03:30:51;5.00;99.90
9103;DHT22;4587;51.434;6.788;2022-12-07T03:33:24;5.00;99.90
9103;DHT22;4587;51.434;6.788;2022-12-07T03:36:01;4.90;99.90
9103;DHT22;4587;51.434;6.788;2022-12-07T03:38:47;5.00;99.90
9103;DHT22;4587;51.434;6.788;2022-12-07T03:41:25;5.00;99.90
9103;DHT22;4587;51.434;6.788;2022-12-07T03:43:53;4.90;99.90
9103;DHT22;4587;51.434;6.788;2022-12-07T03:49:27;4.80;99.90
9103;DHT22;4587;51.434;6.788;2022-12-07T03:54:55;4.80;99.90
9103;DHT22;4587;51.434;6.788;2022-12-07T03:57:24;4.90;99.90
9103;DHT22;4587;51.434;6.788;2022-12-07T03:59:51;4.90;99.90
9103;DHT22;4587;51.434;6.788;2022-12-07T04:02:17;5.00;99.90
9103;DHT22;4587;51.434;6.788;2022-12-07T04:04:43;5.00;99.90
9103;DHT22;4587;51.434;6.788;2022-12-07T04:07:09;5.10;99.90
9103;DHT22;4587;51.434;6.788;2022-12-07T04:09:36;5.00;99.90
9103;DHT22;4587;51.434;6.788;2022-12-07T04:12:01;5.10;99.90
9103;DHT22;4587;51.434;6.788;2022-12-07T04:14:27;5.20;99.90
9103;DHT22;4587;51.434;6.788;2022-12-07T04:16:57;5.10;99.90
9103;DHT22;4587;51.434;6.788;2022-12-07T04:19:26;5.10;99.90
9103;DHT22;4587;51.434;6.788;2022-12-07T04:21:51;5.10;99.90
9103;DHT22;4587;51.434;6.788;2022-12-07T04:24:17;5.10;99.90
9103;DHT22;4587;51.434;6.788;2022-12-07T04:26:44;5.00;99.90
9103;DHT22;4587;51.434;6.788;2022-12-07T04:29:10;5.00;99.90
9103;DHT22;4587;51.434;6.788;2022-12-07T04:31:36;5.00;99.90
9103;DHT22;4587;51.434;6.788;2022-12-07T04:34:02;4.90;99.90
9103;DHT22;4587;51.434;6.788;2022-12-07T04:36:28;4.90;99.90
9103;DHT22;4587;51.434;6.788;2022-12-07T04:38:55;4.90;99.90
9103;DHT22;4587;51.434;6.788;2022-12-07T04:41:21;4.70;99.90
9103;DHT22;4587;51.434;6.788;2022-12-07T04:43:53;4.70;99.90
9103;DHT22;4587;51.434;6.788;2022-12-07T04:46:19;4.60;99.90
9103;DHT22;4587;51.434;6.788;2022-12-07T04:48:45;4.60;99.90
9103;DHT22;4587;51.434;6.788;2022-12-07T04:51:10;4.50;99.90
9103;DHT22;4587;51.434;6.788;2022-12-07T04:53:36;4.60;99.90
9103;DHT22;4587;51.434;6.788;2022-12-07T04:56:01;4.60;99.90
9103;DHT22;4587;51.434;6.788;2022-12-07T04:58:27;4.50;99.90
9103;DHT22;4587;51.434;6.788;2022-12-07T05:00:56;4.60;99.90
9103;DHT22;4587;51.434;6.788;2022-12-07T05:03:21;4.70;99.90
9103;DHT22;4587;51.434;6.788;2022-12-07T05:05:47;4.70;99.90
9103;DHT22;4587;51.434;6.788;2022-12-07T05:08:13;4.70;99.90
9103;DHT22;4587;51.434;6.788;2022-12-07T05:10:38;4.80;99.90
9103;DHT22;4587;51.434;6.788;2022-12-07T05:13:04;4.80;99.90
9103;DHT22;4587;51.434;6.788;2022-12-07T05:15:29;4.80;99.90
9103;DHT22;4587;51.434;6.788;2022-12-07T05:17:55;4.80;99.90
9103;DHT22;4587;51.434;6.788;2022-12-07T05:20:20;4.90;99.90
9103;DHT22;4587;51.434;6.788;2022-12-07T05:22:46;4.90;99.90
9103;DHT22;4587;51.434;6.788;2022-12-07T05:25:12;4.90;99.90
9103;DHT22;4587;51.434;6.788;2022-12-07T05:27:38;4.90;99.90
9103;DHT22;4587;51.434;6.788;2022-12-07T05:30:04;4.90;99.90
9103;DHT22;4587;51.434;6.788;2022-12-07T05:32:30;5.00;99.90
9103;DHT22;4587;51.434;6.788;2022-12-07T05:34:56;4.90;99.90
9103;DHT22;4587;51.434;6.788;2022-12-07T05:37:21;4.90;99.90
9103;DHT22;4587;51.434;6.788;2022-12-07T05:39:47;4.90;99.90
9103;DHT22;4587;51.434;6.788;2022-12-07T05:42:12;4.90;99.90
9103;DHT22;4587;51.434;6.788;2022-12-07T05:44:43;5.00;99.90
9103;DHT22;4587;51.434;6.788;2022-12-07T05:47:09;5.00;99.90
9103;DHT22;4587;51.434;6.788;2022-12-07T05:49:35;5.00;99.90
9103;DHT22;4587;51.434;6.788;2022-12-07T05:52:01;5.00;99.90
9103;DHT22;4587;51.434;6.788;2022-12-07T05:54:27;5.00;99.90
9103;DHT22;4587;51.434;6.788;2022-12-07T05:56:53;4.90;99.90
9103;DHT22;4587;51.434;6.788;2022-12-07T05:59:18;5.00;99.90
9103;DHT22;4587;51.434;6.788;2022-12-07T06:02:12;5.00;99.90
9103;DHT22;4587;51.434;6.788;2022-12-07T06:04:41;5.10;99.90
9103;DHT22;4587;51.434;6.788;2022-12-07T06:07:07;5.00;99.90
9103;DHT22;4587;51.434;6.788;2022-12-07T06:09:34;5.00;99.90
9103;DHT22;4587;51.434;6.788;2022-12-07T06:12:00;5.00;99.90
9103;DHT22;4587;51.434;6.788;2022-12-07T06:14:44;5.00;99.90
9103;DHT22;4587;51.434;6.788;2022-12-07T06:17:11;5.00;99.90
9103;DHT22;4587;51.434;6.788;2022-12-07T06:19:37;4.90;99.90
9103;DHT22;4587;51.434;6.788;2022-12-07T06:22:03;4.90;99.90
9103;DHT22;4587;51.434;6.788;2022-12-07T06:24:30;4.90;99.90
9103;DHT22;4587;51.434;6.788;2022-12-07T06:26:56;4.90;99.90
9103;DHT22;4587;51.434;6.788;2022-12-07T06:29:22;4.90;99.90
9103;DHT22;4587;51.434;6.788;2022-12-07T06:31:48;4.90;99.90
9103;DHT22;4587;51.434;6.788;2022-12-07T06:34:16;4.90;99.90
9103;DHT22;4587;51.434;6.788;2022-12-07T06:36:42;4.90;99.90
9103;DHT22;4587;51.434;6.788;2022-12-07T06:39:08;5.00;99.90
9103;DHT22;4587;51.434;6.788;2022-12-07T06:41:39;4.90;99.90
9103;DHT22;4587;51.434;6.788;2022-12-07T06:44:06;4.90;99.90
9103;DHT22;4587;51.434;6.788;2022-12-07T06:46:32;5.00;99.90
9103;DHT22;4587;51.434;6.788;2022-12-07T06:48:57;5.00;99.90
9103;DHT22;4587;51.434;6.788;2022-12-07T06:51:23;5.10;99.90
9103;DHT22;4587;51.434;6.788;2022-12-07T06:53:48;5.00;99.90
9103;DHT22;4587;51.434;6.788;2022-12-07T06:56:14;5.00;99.90
9103;DHT22;4587;51.434;6.788;2022-12-07T06:58:40;5.00;99.90
9103;DHT22;4587;51.434;6.788;2022-12-07T07:01:13;5.00;99.90
9103;DHT22;4587;51.434;6.788;2022-12-07T07:03:39;5.00;99.90
9103;DHT22;4587;51.434;6.788;2022-12-07T07:06:06;5.00;99.90
9103;DHT22;4587;51.434;6.788;2022-12-07T07:08:33;5.00;99.90
9103;DHT22;4587;51.434;6.788;2022-12-07T07:10:58;5.00;99.90
9103;DHT22;4587;51.434;6.788;2022-12-07T07:13:24;5.00;99.90
9103;DHT22;4587;51.434;6.788;2022-12-07T07:15:49;5.00;99.90
9103;DHT22;4587;51.434;6.788;2022-12-07T07:18:15;4.90;99.90
9103;DHT22;4587;51.434;6.788;2022-12-07T07:20:41;4.90;99.90
9103;DHT22;4587;51.434;6.788;2022-12-07T07:23:07;4.80;99.90
9103;DHT22;4587;51.434;6.788;2022-12-07T07:25:33;4.80;99.90
9103;DHT22;4587;51.434;6.788;2022-12-07T07:27:59;4.90;99.90
9103;DHT22;4587;51.434;6.788;2022-12-07T07:30:25;4.80;99.90
9103;DHT22;4587;51.434;6.788;2022-12-07T07:32:50;4.80;99.90
9103;DHT22;4587;51.434;6.788;2022-12-07T07:35:16;4.80;99.90
9103;DHT22;4587;51.434;6.788;2022-12-07T07:37:41;4.80;99.90
9103;DHT22;4587;51.434;6.788;2022-12-07T07:40:08;4.80;99.90
9103;DHT22;4587;51.434;6.788;2022-12-07T07:42:34;4.80;99.90
9103;DHT22;4587;51.434;6.788;2022-12-07T07:45:00;4.80;99.90
9103;DHT22;4587;51.434;6.788;2022-12-07T07:47:26;4.80;99.90
9103;DHT22;4587;51.434;6.788;2022-12-07T07:49:51;4.90;99.90
9103;DHT22;4587;51.434;6.788;2022-12-07T07:52:17;4.90;99.90
9103;DHT22;4587;51.434;6.788;2022-12-07T07:54:42;4.90;99.90
9103;DHT22;4587;51.434;6.788;2022-12-07T07:57:08;4.90;99.90
9103;DHT22;4587;51.434;6.788;2022-12-07T07:59:33;4.90;99.90
9103;DHT22;4587;51.434;6.788;2022-12-07T08:01:59;5.00;99.90
9103;DHT22;4587;51.434;6.788;2022-12-07T08:04:24;5.10;99.90
9103;DHT22;4587;51.434;6.788;2022-12-07T08:06:50;5.20;99.90
9103;DHT22;4587;51.434;6.788;2022-12-07T08:09:15;5.20;99.90
9103;DHT22;4587;51.434;6.788;2022-12-07T08:11:41;5.20;99.90
9103;DHT22;4587;51.434;6.788;2022-12-07T08:14:06;5.20;99.90
9103;DHT22;4587;51.434;6.788;2022-12-07T08:16:32;5.30;99.90
9103;DHT22;4587;51.434;6.788;2022-12-07T08:18:57;5.20;99.90
9103;DHT22;4587;51.434;6.788;2022-12-07T08:21:23;5.20;99.90
9103;DHT22;4587;51.434;6.788;2022-12-07T08:23:49;5.30;99.90
9103;DHT22;4587;51.434;6.788;2022-12-07T08:26:16;5.40;99.90
9103;DHT22;4587;51.434;6.788;2022-12-07T08:28:42;5.50;99.90
9103;DHT22;4587;51.434;6.788;2022-12-07T08:31:15;5.30;99.90
9103;DHT22;4587;51.434;6.788;2022-12-07T08:33:41;5.20;99.90
9103;DHT22;4587;51.434;6.788;2022-12-07T08:36:09;5.10;99.90
9103;DHT22;4587;51.434;6.788;2022-12-07T08:38:37;5.10;99.90
9103;DHT22;4587;51.434;6.788;2022-12-07T08:41:03;5.00;99.90
9103;DHT22;4587;51.434;6.788;2022-12-07T08:43:29;5.00;99.90
9103;DHT22;4587;51.434;6.788;2022-12-07T08:48:38;5.30;99.90
9103;DHT22;4587;51.434;6.788;2022-12-07T08:51:05;5.60;99.90
9103;DHT22;4587;51.434;6.788;2022-12-07T08:53:31;5.80;99.90
9103;DHT22;4587;51.434;6.788;2022-12-07T08:55:58;5.90;99.90
9103;DHT22;4587;51.434;6.788;2022-12-07T08:58:23;6.00;99.90
9103;DHT22;4587;51.434;6.788;2022-12-07T09:00:49;5.80;99.90
9103;DHT22;4587;51.434;6.788;2022-12-07T09:03:15;5.70;99.90
9103;DHT22;4587;51.434;6.788;2022-12-07T09:05:41;5.60;99.90
9103;DHT22;4587;51.434;6.788;2022-12-07T09:08:07;5.60;99.90
9103;DHT22;4587;51.434;6.788;2022-12-07T09:10:33;5.50;99.90
9103;DHT22;4587;51.434;6.788;2022-12-07T09:12:58;5.50;99.90
9103;DHT22;4587;51.434;6.788;2022-12-07T09:15:29;5.70;99.90
9103;DHT22;4587;51.434;6.788;2022-12-07T09:17:55;7.10;99.90
9103;DHT22;4587;51.434;6.788;2022-12-07T09:20:21;7.40;99.90
9103;DHT22;4587;51.434;6.788;2022-12-07T09:22:47;7.20;99.90
9103;DHT22;4587;51.434;6.788;2022-12-07T09:25:12;7.00;99.90
9103;DHT22;4587;51.434;6.788;2022-12-07T09:27:38;6.90;99.90
9103;DHT22;4587;51.434;6.788;2022-12-07T09:30:04;6.80;99.90
9103;DHT22;4587;51.434;6.788;2022-12-07T09:32:30;6.70;99.90
9103;DHT22;4587;51.434;6.788;2022-12-07T09:34:55;6.70;99.90
9103;DHT22;4587;51.434;6.788;2022-12-07T09:37:21;6.60;99.90
9103;DHT22;4587;51.434;6.788;2022-12-07T09:39:47;6.50;99.90
9103;DHT22;4587;51.434;6.788;2022-12-07T09:44:49;6.50;99.90
9103;DHT22;4587;51.434;6.788;2022-12-07T09:47:15;6.40;99.90
9103;DHT22;4587;51.434;6.788;2022-12-07T09:49:40;6.50;99.90
9103;DHT22;4587;51.434;6.788;2022-12-07T09:54:41;6.60;99.90
9103;DHT22;4587;51.434;6.788;2022-12-07T09:57:11;6.70;99.90
9103;DHT22;4587;51.434;6.788;2022-12-07T09:59:38;6.90;99.90
9103;DHT22;4587;51.434;6.788;2022-12-07T10:05:10;7.10;99.90
9103;DHT22;4587;51.434;6.788;2022-12-07T10:07:37;7.20;99.90
9103;DHT22;4587;51.434;6.788;2022-12-07T10:10:06;7.30;99.90
9103;DHT22;4587;51.434;6.788;2022-12-07T10:13:02;7.30;99.90
9103;DHT22;4587;51.434;6.788;2022-12-07T10:15:44;7.50;99.90
9103;DHT22;4587;51.434;6.788;2022-12-07T10:18:26;7.60;99.90
9103;DHT22;4587;51.434;6.788;2022-12-07T10:21:05;7.70;99.90
9103;DHT22;4587;51.434;6.788;2022-12-07T10:23:33;7.80;99.90
9103;DHT22;4587;51.434;6.788;2022-12-07T10:25:59;7.90;99.90
9103;DHT22;4587;51.434;6.788;2022-12-07T10:28:34;8.10;99.90
9103;DHT22;4587;51.434;6.788;2022-12-07T10:31:03;8.20;99.90
9103;DHT22;4587;51.434;6.788;2022-12-07T10:33:53;8.20;99.90
9103;DHT22;4587;51.434;6.788;2022-12-07T10:36:23;8.20;99.90
9103;DHT22;4587;51.434;6.788;2022-12-07T10:41:16;8.20;99.90
9103;DHT22;4587;51.434;6.788;2022-12-07T10:43:51;8.10;99.90
9103;DHT22;4587;51.434;6.788;2022-12-07T10:54:38;7.90;99.90
9103;DHT22;4587;51.434;6.788;2022-12-07T11:10:55;7.90;99.90
9103;DHT22;4587;51.434;6.788;2022-12-07T11:24:40;7.80;99.90
9103;DHT22;4587;51.434;6.788;2022-12-07T11:27:28;7.90;99.90
9103;DHT22;4587;51.434;6.788;2022-12-07T11:32:58;7.90;99.90
9103;DHT22;4587;51.434;6.788;2022-12-07T11:38:17;7.90;99.90
9103;DHT22;4587;51.434;6.788;2022-12-07T11:40:48;8.00;99.90
9103;DHT22;4587;51.434;6.788;2022-12-07T11:43:20;7.90;99.90
9103;DHT22;4587;51.434;6.788;2022-12-07T11:45:52;7.90;99.90
9103;DHT22;4587;51.434;6.788;2022-12-07T11:51:18;8.00;99.90
9103;DHT22;4587;51.434;6.788;2022-12-07T11:53:58;8.00;99.90
9103;DHT22;4587;51.434;6.788;2022-12-07T11:56:27;8.10;99.90
9103;DHT22;4587;51.434;6.788;2022-12-07T11:59:26;8.00;99.90
9103;DHT22;4587;51.434;6.788;2022-12-07T12:02:11;8.00;99.90
9103;DHT22;4587;51.434;6.788;2022-12-07T12:04:55;8.00;99.90
9103;DHT22;4587;51.434;6.788;2022-12-07T12:07:26;8.10;99.90
9103;DHT22;4587;51.434;6.788;2022-12-07T12:09:59;8.00;99.90
9103;DHT22;4587;51.434;6.788;2022-12-07T12:15:35;7.90;99.90
9103;DHT22;4587;51.434;6.788;2022-12-07T12:18:24;7.90;99.90
9103;DHT22;4587;51.434;6.788;2022-12-07T12:21:17;7.90;99.90
9103;DHT22;4587;51.434;6.788;2022-12-07T12:23:50;7.90;99.90
9103;DHT22;4587;51.434;6.788;2022-12-07T12:26:25;7.80;99.90
9103;DHT22;4587;51.434;6.788;2022-12-07T12:29:03;7.80;99.90
9103;DHT22;4587;51.434;6.788;2022-12-07T12:31:34;7.80;99.90
9103;DHT22;4587;51.434;6.788;2022-12-07T12:34:04;7.80;99.90
9103;DHT22;4587;51.434;6.788;2022-12-07T12:36:43;7.90;99.90
9103;DHT22;4587;51.434;6.788;2022-12-07T12:39:14;7.90;99.90
9103;DHT22;4587;51.434;6.788;2022-12-07T12:46:57;7.80;99.90
9103;DHT22;4587;51.434;6.788;2022-12-07T12:51:52;7.90;99.90
9103;DHT22;4587;51.434;6.788;2022-12-07T13:01:47;7.80;99.90
9103;DHT22;4587;51.434;6.788;2022-12-07T13:04:51;7.70;99.90
9103;DHT22;4587;51.434;6.788;2022-12-07T13:10:31;7.70;99.90
9103;DHT22;4587;51.434;6.788;2022-12-07T13:28:52;7.60;99.90
9103;DHT22;4587;51.434;6.788;2022-12-07T13:33:45;7.60;99.90
9103;DHT22;4587;51.434;6.788;2022-12-07T13:36:29;7.60;99.90
9103;DHT22;4587;51.434;6.788;2022-12-07T13:39:10;7.50;99.90
9103;DHT22;4587;51.434;6.788;2022-12-07T13:41:36;7.50;99.90
9103;DHT22;4587;51.434;6.788;2022-12-07T13:44:12;7.40;99.90
9103;DHT22;4587;51.434;6.788;2022-12-07T13:49:50;7.30;99.90
9103;DHT22;4587;51.434;6.788;2022-12-07T13:52:30;7.30;99.90
9103;DHT22;4587;51.434;6.788;2022-12-07T13:55:05;7.20;99.90
9103;DHT22;4587;51.434;6.788;2022-12-07T13:57:34;7.20;99.90
9103;DHT22;4587;51.434;6.788;2022-12-07T14:00:01;7.20;99.90
9103;DHT22;4587;51.434;6.788;2022-12-07T14:02:31;7.10;99.90
9103;DHT22;4587;51.434;6.788;2022-12-07T14:05:24;7.10;99.90
9103;DHT22;4587;51.434;6.788;2022-12-07T14:07:59;7.10;99.90
9103;DHT22;4587;51.434;6.788;2022-12-07T14:10:37;7.00;99.90
9103;DHT22;4587;51.434;6.788;2022-12-07T14:15:50;7.10;99.90
9103;DHT22;4587;51.434;6.788;2022-12-07T14:21:27;7.00;99.90
9103;DHT22;4587;51.434;6.788;2022-12-07T14:24:16;6.90;99.90
9103;DHT22;4587;51.434;6.788;2022-12-07T14:26:47;6.80;99.90
9103;DHT22;4587;51.434;6.788;2022-12-07T14:29:21;6.70;99.90
9103;DHT22;4587;51.434;6.788;2022-12-07T14:31:47;6.70;99.90
9103;DHT22;4587;51.434;6.788;2022-12-07T14:34:13;6.70;99.90
9103;DHT22;4587;51.434;6.788;2022-12-07T14:36:39;6.60;99.90
9103;DHT22;4587;51.434;6.788;2022-12-07T14:39:04;6.60;99.90
9103;DHT22;4587;51.434;6.788;2022-12-07T14:41:30;6.60;99.90
9103;DHT22;4587;51.434;6.788;2022-12-07T14:44:14;6.50;99.90
9103;DHT22;4587;51.434;6.788;2022-12-07T14:46:39;6.40;99.90
9103;DHT22;4587;51.434;6.788;2022-12-07T14:49:05;6.30;99.90
9103;DHT22;4587;51.434;6.788;2022-12-07T14:51:31;6.30;99.90
9103;DHT22;4587;51.434;6.788;2022-12-07T14:53:57;6.30;99.90
9103;DHT22;4587;51.434;6.788;2022-12-07T14:56:23;6.20;99.90
9103;DHT22;4587;51.434;6.788;2022-12-07T14:58:49;6.20;99.90
9103;DHT22;4587;51.434;6.788;2022-12-07T15:01:14;6.10;99.90
9103;DHT22;4587;51.434;6.788;2022-12-07T15:03:40;6.00;99.90
9103;DHT22;4587;51.434;6.788;2022-12-07T15:06:06;6.00;99.90
9103;DHT22;4587;51.434;6.788;2022-12-07T15:08:32;6.00;99.90
9103;DHT22;4587;51.434;6.788;2022-12-07T15:10:58;6.00;99.90
9103;DHT22;4587;51.434;6.788;2022-12-07T15:13:23;5.90;99.90
9103;DHT22;4587;51.434;6.788;2022-12-07T15:16:10;5.90;99.90
9103;DHT22;4587;51.434;6.788;2022-12-07T15:18:38;5.80;99.90
9103;DHT22;4587;51.434;6.788;2022-12-07T15:21:03;5.80;99.90
9103;DHT22;4587;51.434;6.788;2022-12-07T15:23:29;5.80;99.90
9103;DHT22;4587;51.434;6.788;2022-12-07T15:25:54;5.70;99.90
9103;DHT22;4587;51.434;6.788;2022-12-07T15:28:20;5.80;99.90
9103;DHT22;4587;51.434;6.788;2022-12-07T15:30:46;5.80;99.90
9103;DHT22;4587;51.434;6.788;2022-12-07T15:33:12;5.70;99.90
9103;DHT22;4587;51.434;6.788;2022-12-07T15:35:39;5.80;99.90
9103;DHT22;4587;51.434;6.788;2022-12-07T15:38:05;5.70;99.90
9103;DHT22;4587;51.434;6.788;2022-12-07T15:40:30;5.70;99.90
9103;DHT22;4587;51.434;6.788;2022-12-07T15:42:57;5.60;99.90
9103;DHT22;4587;51.434;6.788;2022-12-07T15:45:22;5.60;99.90
9103;DHT22;4587;51.434;6.788;2022-12-07T15:47:48;5.60;99.90
9103;DHT22;4587;51.434;6.788;2022-12-07T15:50:15;5.60;99.90
9103;DHT22;4587;51.434;6.788;2022-12-07T15:52:41;5.60;99.90
9103;DHT22;4587;51.434;6.788;2022-12-07T15:55:08;5.80;99.90
9103;DHT22;4587;51.434;6.788;2022-12-07T15:57:35;5.80;99.90
9103;DHT22;4587;51.434;6.788;2022-12-07T16:00:03;5.80;99.90
9103;DHT22;4587;51.434;6.788;2022-12-07T16:02:29;5.70;99.90
9103;DHT22;4587;51.434;6.788;2022-12-07T16:04:54;5.80;99.90
9103;DHT22;4587;51.434;6.788;2022-12-07T16:07:20;5.80;99.90
9103;DHT22;4587;51.434;6.788;2022-12-07T16:09:46;5.70;99.90
9103;DHT22;4587;51.434;6.788;2022-12-07T16:12:13;5.70;99.90
9103;DHT22;4587;51.434;6.788;2022-12-07T16:14:40;5.80;99.90
9103;DHT22;4587;51.434;6.788;2022-12-07T16:17:06;5.80;99.90
9103;DHT22;4587;51.434;6.788;2022-12-07T16:19:33;5.80;99.90
9103;DHT22;4587;51.434;6.788;2022-12-07T16:21:59;5.90;99.90
9103;DHT22;4587;51.434;6.788;2022-12-07T16:24:25;5.90;99.90
9103;DHT22;4587;51.434;6.788;2022-12-07T16:26:51;6.00;99.90
9103;DHT22;4587;51.434;6.788;2022-12-07T16:29:19;6.00;99.90
9103;DHT22;4587;51.434;6.788;2022-12-07T16:31:45;6.00;99.90
9103;DHT22;4587;51.434;6.788;2022-12-07T16:34:10;6.00;99.90
9103;DHT22;4587;51.434;6.788;2022-12-07T16:36:36;5.90;99.90
9103;DHT22;4587;51.434;6.788;2022-12-07T16:39:03;6.00;99.90
9103;DHT22;4587;51.434;6.788;2022-12-07T16:41:28;5.90;99.90
9103;DHT22;4587;51.434;6.788;2022-12-07T16:43:54;6.00;99.90
9103;DHT22;4587;51.434;6.788;2022-12-07T16:46:19;6.00;99.90
9103;DHT22;4587;51.434;6.788;2022-12-07T16:48:45;6.00;99.90
9103;DHT22;4587;51.434;6.788;2022-12-07T16:51:13;6.00;99.90
9103;DHT22;4587;51.434;6.788;2022-12-07T16:53:40;6.00;99.90
9103;DHT22;4587;51.434;6.788;2022-12-07T16:56:11;6.00;99.90
9103;DHT22;4587;51.434;6.788;2022-12-07T16:58:37;6.00;99.90
9103;DHT22;4587;51.434;6.788;2022-12-07T17:01:13;6.00;99.90
9103;DHT22;4587;51.434;6.788;2022-12-07T17:03:39;5.90;99.90
9103;DHT22;4587;51.434;6.788;2022-12-07T17:08:37;6.10;99.90
9103;DHT22;4587;51.434;6.788;2022-12-07T17:11:10;6.10;99.90
9103;DHT22;4587;51.434;6.788;2022-12-07T17:13:35;6.10;99.90
9103;DHT22;4587;51.434;6.788;2022-12-07T17:16:24;6.10;99.90
9103;DHT22;4587;51.434;6.788;2022-12-07T17:18:50;6.10;99.90
9103;DHT22;4587;51.434;6.788;2022-12-07T17:21:15;6.10;99.90
9103;DHT22;4587;51.434;6.788;2022-12-07T17:23:41;6.10;99.90
9103;DHT22;4587;51.434;6.788;2022-12-07T17:26:12;6.00;99.90
9103;DHT22;4587;51.434;6.788;2022-12-07T17:28:38;6.10;99.90
9103;DHT22;4587;51.434;6.788;2022-12-07T17:31:05;6.00;99.90
9103;DHT22;4587;51.434;6.788;2022-12-07T17:33:32;6.00;99.90
9103;DHT22;4587;51.434;6.788;2022-12-07T17:35:58;6.00;99.90
9103;DHT22;4587;51.434;6.788;2022-12-07T17:38:23;6.00;99.90
9103;DHT22;4587;51.434;6.788;2022-12-07T17:40:49;6.00;99.90
9103;DHT22;4587;51.434;6.788;2022-12-07T17:43:14;5.90;99.90
9103;DHT22;4587;51.434;6.788;2022-12-07T17:45:40;6.00;99.90
9103;DHT22;4587;51.434;6.788;2022-12-07T17:48:05;6.00;99.90
9103;DHT22;4587;51.434;6.788;2022-12-07T17:50:31;6.00;99.90
9103;DHT22;4587;51.434;6.788;2022-12-07T17:53:15;6.00;99.90
9103;DHT22;4587;51.434;6.788;2022-12-07T17:55:40;6.00;99.90
9103;DHT22;4587;51.434;6.788;2022-12-07T17:58:06;6.00;99.90
9103;DHT22;4587;51.434;6.788;2022-12-07T18:00:32;5.90;99.90
9103;DHT22;4587;51.434;6.788;2022-12-07T18:03:06;5.90;99.90
9103;DHT22;4587;51.434;6.788;2022-12-07T18:05:36;5.90;99.90
9103;DHT22;4587;51.434;6.788;2022-12-07T18:08:02;5.80;99.90
9103;DHT22;4587;51.434;6.788;2022-12-07T18:10:28;5.90;99.90
9103;DHT22;4587;51.434;6.788;2022-12-07T18:12:53;5.80;99.90
9103;DHT22;4587;51.434;6.788;2022-12-07T18:15:39;5.80;99.90
9103;DHT22;4587;51.434;6.788;2022-12-07T18:18:04;5.90;99.90
9103;DHT22;4587;51.434;6.788;2022-12-07T18:20:30;5.90;99.90
9103;DHT22;4587;51.434;6.788;2022-12-07T18:22:55;5.90;99.90
9103;DHT22;4587;51.434;6.788;2022-12-07T18:25:21;5.90;99.90
9103;DHT22;4587;51.434;6.788;2022-12-07T18:27:47;5.90;99.90
9103;DHT22;4587;51.434;6.788;2022-12-07T18:30:13;5.90;99.90
9103;DHT22;4587;51.434;6.788;2022-12-07T18:32:38;5.80;99.90
9103;DHT22;4587;51.434;6.788;2022-12-07T18:35:04;5.90;99.90
9103;DHT22;4587;51.434;6.788;2022-12-07T18:37:30;5.90;99.90
9103;DHT22;4587;51.434;6.788;2022-12-07T18:39:56;5.90;99.90
9103;DHT22;4587;51.434;6.788;2022-12-07T18:42:21;5.80;99.90
9103;DHT22;4587;51.434;6.788;2022-12-07T18:44:47;5.80;99.90
9103;DHT22;4587;51.434;6.788;2022-12-07T18:47:12;5.90;99.90
9103;DHT22;4587;51.434;6.788;2022-12-07T18:49:38;5.90;99.90
9103;DHT22;4587;51.434;6.788;2022-12-07T18:52:03;5.80;99.90
9103;DHT22;4587;51.434;6.788;2022-12-07T18:54:29;5.80;99.90